Time;durP1;ratioP1;P1;durP2;ratioP2;P2;SDS_P1;SDS_P2;PMS_P1;PMS_P2;Temp;Humidity;BMP_temperature;BMP_pressure;BME280_temperature;BME280_humidity;BME280_pressure;Samples;Min_cycle;Max_cycle;Signal;HPM_P1;HPM_P2
2021/08/17 00:02:23;;;;;;;21.10;11.50;;;;;;;22.93;52.35;99660.72;5030819;28;20079;-53
2021/08/17 00:04:48;;;;;;;20.67;10.88;;;;;;;22.85;52.14;99641.78;5031257;28;20040;-59
2021/08/17 00:07:14;;;;;;;20.55;11.52;;;;;;;22.93;52.36;99664.25;5030143;28;20048;-53
2021/08/17 00:09:39;;;;;;;17.83;11.55;;;;;;;22.92;52.31;99653.56;5030345;28;20030;-52
2021/08/17 00:12:05;;;;;;;23.95;11.07;;;;;;;22.84;52.35;99653.75;5030911;28;20041;-53
2021/08/17 00:14:31;;;;;;;21.70;11.75;;;;;;;22.86;52.68;99655.25;5031034;28;20045;-55
2021/08/17 00:16:56;;;;;;;17.92;10.90;;;;;;;22.82;52.45;99647.66;5029395;28;20037;-56
2021/08/17 00:19:21;;;;;;;20.38;11.18;;;;;;;22.80;52.67;99653.34;5030793;28;20060;-57
2021/08/17 00:21:47;;;;;;;16.70;10.88;;;;;;;22.78;53.07;99652.69;5030622;28;20038;-57
2021/08/17 00:24:12;;;;;;;19.80;11.85;;;;;;;22.78;52.92;99655.41;5030932;28;20030;-55
2021/08/17 00:26:38;;;;;;;23.90;12.45;;;;;;;22.79;52.78;99657.94;5030821;28;20030;-54
2021/08/17 00:29:03;;;;;;;22.00;11.82;;;;;;;22.76;53.06;99650.19;5030351;28;20025;-51
2021/08/17 00:31:29;;;;;;;15.50;10.27;;;;;;;22.74;53.09;99659.63;5030728;28;20029;-53
2021/08/17 00:33:54;;;;;;;17.17;11.23;;;;;;;22.61;53.17;99633.16;5029201;28;20026;-52
2021/08/17 00:36:20;;;;;;;20.05;11.73;;;;;;;22.75;53.27;99650.38;5030951;28;20036;-54
2021/08/17 00:38:45;;;;;;;16.75;11.02;;;;;;;22.62;53.36;99630.22;5030738;28;20034;-50
2021/08/17 00:41:11;;;;;;;21.67;12.05;;;;;;;22.75;53.21;99656.69;5029933;28;20370;-50
2021/08/17 00:43:38;;;;;;;17.40;11.52;;;;;;;22.75;53.27;99650.38;5030837;28;20033;-55
2021/08/17 00:46:04;;;;;;;17.90;11.23;;;;;;;22.77;53.48;99651.88;5030503;28;20026;-52
2021/08/17 00:48:30;;;;;;;19.40;11.13;;;;;;;22.77;53.37;99651.00;5030258;28;20477;-51
2021/08/17 00:50:56;;;;;;;19.13;11.95;;;;;;;22.76;53.45;99647.47;5032171;28;20156;-56
2021/08/17 00:53:21;;;;;;;20.92;12.05;;;;;;;22.75;53.53;99648.50;5049097;28;20473;-60
2021/08/17 00:55:50;;;;;;;22.42;12.57;;;;;;;22.79;53.37;99651.66;5050266;28;20036;-51
2021/08/17 00:58:16;;;;;;;22.42;12.40;;;;;;;22.75;53.75;99651.25;5049719;28;20457;-50
2021/08/17 01:00:41;;;;;;;23.35;11.95;;;;;;;22.76;53.55;99643.88;5030038;28;20033;-53
2021/08/17 01:03:07;;;;;;;17.95;10.70;;;;;;;22.76;53.94;99644.72;5032999;28;20075;-50
2021/08/17 01:05:32;;;;;;;19.23;12.18;;;;;;;22.75;53.95;99643.06;5034364;28;20034;-51
2021/08/17 01:07:59;;;;;;;19.65;11.82;;;;;;;22.73;53.89;99647.88;5032743;28;20033;-52
2021/08/17 01:10:25;;;;;;;19.38;11.38;;;;;;;22.73;53.81;99636.97;5032494;28;20029;-54
2021/08/17 01:12:50;;;;;;;21.08;11.48;;;;;;;22.71;53.89;99630.03;5034115;28;20040;-53
2021/08/17 01:15:16;;;;;;;16.77;11.63;;;;;;;22.74;53.98;99635.91;5033775;28;20096;-53
2021/08/17 01:17:42;;;;;;;22.33;12.25;;;;;;;22.74;54.08;99635.06;5033907;28;20038;-54
2021/08/17 01:20:19;;;;;;;19.83;11.55;;;;;;;22.86;53.64;99638.00;5033950;28;20037;-56
2021/08/17 01:22:46;;;;;;;19.98;12.13;;;;;;;22.75;54.51;99647.66;5033908;28;20065;-53
2021/08/17 01:25:12;;;;;;;20.67;11.80;;;;;;;22.70;54.60;99639.25;5033701;28;20406;-54
2021/08/17 01:27:39;;;;;;;22.15;11.50;;;;;;;22.79;54.74;99652.50;5033010;28;20112;-51
2021/08/17 01:30:06;;;;;;;17.83;11.45;;;;;;;22.83;54.26;99652.06;5033057;28;20033;-51
2021/08/17 01:32:31;;;;;;;21.02;11.80;;;;;;;22.87;54.18;99642.41;5033619;28;20436;-53
2021/08/17 01:34:56;;;;;;;20.10;11.27;;;;;;;22.92;54.11;99639.91;5033479;28;20450;-55
2021/08/17 01:37:22;;;;;;;18.75;11.35;;;;;;;22.93;55.05;99641.59;5033604;28;20057;-53
2021/08/17 01:40:09;;;;;;;22.85;11.95;;;;;;;23.06;53.85;99638.84;5032270;28;20037;-50
2021/08/17 01:42:35;;;;;;;19.00;12.52;;;;;;;22.85;54.10;99625.41;5033565;28;20428;-52
2021/08/17 01:45:01;;;;;;;21.50;13.13;;;;;;;22.91;53.83;99630.06;5033221;28;20029;-52
2021/08/17 01:47:31;;;;;;;22.85;12.40;;;;;;;22.95;54.07;99636.78;5031766;28;20033;-57
2021/08/17 01:50:00;;;;;;;18.63;12.45;;;;;;;22.92;53.97;99642.66;5033351;28;20049;-53
2021/08/17 01:52:25;;;;;;;20.75;11.52;;;;;;;22.87;54.43;99634.22;5046934;28;20032;-63
2021/08/17 01:54:50;;;;;;;17.42;11.23;;;;;;;22.84;54.92;99664.66;5053122;28;20047;-56
2021/08/17 01:57:16;;;;;;;22.50;12.48;;;;;;;22.94;54.39;99674.13;5052987;28;20025;-52
2021/08/17 01:59:41;;;;;;;22.77;12.55;;;;;;;22.84;54.97;99660.06;5040338;28;20143;-61
2021/08/17 02:02:08;;;;;;;19.80;12.45;;;;;;;22.77;55.24;99653.75;5040879;28;20435;-54
2021/08/17 02:04:35;;;;;;;19.55;11.07;;;;;;;22.71;55.24;99677.28;5032457;28;20029;-55
2021/08/17 02:07:01;;;;;;;20.67;11.88;;;;;;;22.64;55.57;99674.53;5032871;28;20048;-50
2021/08/17 02:09:27;;;;;;;17.23;11.98;;;;;;;22.60;55.76;99678.72;5032086;28;20025;-52
2021/08/17 02:11:52;;;;;;;23.58;12.38;;;;;;;22.57;56.20;99681.00;5031557;28;20028;-55
2021/08/17 02:14:17;;;;;;;24.75;12.20;;;;;;;22.43;55.94;99688.28;5032616;28;20050;-56
2021/08/17 02:16:43;;;;;;;16.63;12.18;;;;;;;22.50;56.04;99691.91;5032479;28;20063;-50
2021/08/17 02:19:08;;;;;;;18.80;12.38;;;;;;;22.48;56.16;99697.56;5032897;28;20042;-52
2021/08/17 02:21:34;;;;;;;15.18;12.27;;;;;;;22.41;56.67;99695.84;5032506;28;20030;-54
2021/08/17 02:23:59;;;;;;;18.23;11.60;;;;;;;22.34;56.53;99687.63;5032410;28;20057;-52
2021/08/17 02:26:25;;;;;;;18.85;11.40;;;;;;;22.42;56.29;99714.72;5032132;28;20079;-53
2021/08/17 02:28:50;;;;;;;17.42;11.18;;;;;;;22.42;56.52;99728.34;5032822;28;20112;-55
2021/08/17 02:31:16;;;;;;;21.65;11.77;;;;;;;22.43;56.45;99734.66;5032272;28;20348;-51
2021/08/17 02:33:41;;;;;;;17.83;12.43;;;;;;;22.40;56.63;99716.81;5032635;28;20044;-49
2021/08/17 02:36:07;;;;;;;17.48;12.25;;;;;;;22.42;56.38;99722.88;5032610;28;20109;-49
2021/08/17 02:38:32;;;;;;;15.38;11.05;;;;;;;22.19;56.49;99683.19;5032654;28;20029;-53
2021/08/17 02:40:58;;;;;;;19.73;11.73;;;;;;;22.44;56.51;99728.16;5032498;28;20032;-63
2021/08/17 02:43:24;;;;;;;15.43;11.80;;;;;;;22.45;56.39;99738.88;5030920;28;20026;-50
2021/08/17 02:45:51;;;;;;;18.83;11.57;;;;;;;22.42;56.31;99741.97;5032293;28;20029;-50
2021/08/17 02:48:17;;;;;;;14.52;11.05;;;;;;;22.43;56.66;99754.59;5031706;28;20026;-55
2021/08/17 02:50:43;;;;;;;17.05;10.98;;;;;;;22.45;56.83;99752.50;5032382;28;20116;-51
2021/08/17 02:53:08;;;;;;;15.18;11.15;;;;;;;22.49;56.06;99758.41;5052303;28;20025;-51
2021/08/17 02:55:34;;;;;;;16.20;10.63;;;;;;;22.54;55.79;99760.53;5052214;28;20451;-48
2021/08/17 02:58:08;;;;;;;14.68;10.20;;;;;;;22.58;55.59;99764.53;5051502;28;20032;-55
2021/08/17 03:00:37;;;;;;;15.83;11.27;;;;;;;22.63;55.89;99773.81;5051301;28;20033;-51
2021/08/17 03:03:03;;;;;;;16.90;11.00;;;;;;;22.65;56.13;99770.84;5036778;28;20026;-52
2021/08/17 03:05:29;;;;;;;18.98;11.05;;;;;;;22.71;55.75;99780.97;5031899;28;20029;-59
2021/08/17 03:08:00;;;;;;;14.77;10.55;;;;;;;22.70;55.27;99782.00;5031902;28;20041;-50
2021/08/17 03:10:27;;;;;;;16.10;10.32;;;;;;;22.84;54.98;99792.94;5031807;28;20116;-52
2021/08/17 03:12:52;;;;;;;13.75;9.98;;;;;;;22.87;54.61;99785.22;5031821;28;20052;-50
2021/08/17 03:15:19;;;;;;;13.70;10.00;;;;;;;22.91;54.78;99791.94;5029863;28;20490;-52
2021/08/17 03:17:45;;;;;;;12.23;9.95;;;;;;;22.91;54.35;99781.00;5031305;28;20045;-58
2021/08/17 03:20:12;;;;;;;14.77;10.52;;;;;;;23.01;54.38;99788.81;5031798;28;20044;-55
2021/08/17 03:22:38;;;;;;;15.18;10.50;;;;;;;23.09;54.27;99787.78;5031414;28;20087;-50
2021/08/17 03:25:05;;;;;;;17.15;10.63;;;;;;;23.19;54.01;99781.91;5030265;28;20393;-54
2021/08/17 03:27:31;;;;;;;16.60;10.00;;;;;;;23.32;54.02;99783.84;5031758;28;20112;-58
2021/08/17 03:29:56;;;;;;;17.02;10.25;;;;;;;23.32;53.56;99759.25;5031689;28;20163;-54
2021/08/17 03:32:22;;;;;;;20.92;9.88;;;;;;;23.57;53.20;99785.97;5031285;28;20086;-52
2021/08/17 03:34:47;;;;;;;12.40;9.57;;;;;;;23.71;52.32;99795.00;5031321;28;20040;-50
2021/08/17 03:37:13;;;;;;;13.20;8.38;;;;;;;23.78;52.18;99784.88;5031215;28;20029;-54
2021/08/17 03:39:38;;;;;;;15.48;9.77;;;;;;;23.83;51.78;99784.25;5031221;28;20163;-51
2021/08/17 03:42:04;;;;;;;13.50;9.30;;;;;;;23.80;52.07;99767.22;5029795;28;20029;-53
2021/08/17 03:44:29;;;;;;;12.15;9.13;;;;;;;23.91;51.74;99782.13;5031666;28;20030;-53
2021/08/17 03:46:55;;;;;;;16.02;9.10;;;;;;;23.97;51.58;99782.34;5030123;28;20476;-51
2021/08/17 03:49:20;;;;;;;13.00;8.93;;;;;;;24.01;51.30;99781.72;5031418;28;20209;-49
2021/08/17 03:51:47;;;;;;;17.13;8.38;;;;;;;24.03;51.47;99784.25;5039558;28;20029;-53
2021/08/17 03:54:12;;;;;;;10.55;8.20;;;;;;;24.07;50.61;99782.75;5050721;28;20154;-54
2021/08/17 03:56:38;;;;;;;12.40;7.25;;;;;;;24.22;49.90;99777.03;5050935;28;20029;-53
2021/08/17 03:59:03;;;;;;;13.30;7.65;;;;;;;24.52;48.86;99785.56;5050426;28;20178;-56
2021/08/17 04:01:29;;;;;;;9.90;7.50;;;;;;;24.91;47.66;99773.81;5050811;28;20036;-50
2021/08/17 04:03:54;;;;;;;7.25;6.55;;;;;;;25.41;46.07;99769.47;5050743;28;20509;-55
2021/08/17 04:06:20;;;;;;;8.77;6.55;;;;;;;25.99;44.82;99761.97;5051265;28;20528;-56
2021/08/17 04:08:47;;;;;;;7.93;6.45;;;;;;;26.56;43.56;99766.44;5050170;28;20547;-54
2021/08/17 04:11:13;;;;;;;7.88;6.35;;;;;;;27.19;41.94;99753.28;5050542;28;20033;-55
2021/08/17 04:13:39;;;;;;;9.13;6.50;;;;;;;27.64;41.06;99750.00;5050712;28;20029;-54
2021/08/17 04:16:05;;;;;;;8.55;6.13;;;;;;;27.93;39.91;99758.38;5051225;28;20049;-53
2021/08/17 04:18:31;;;;;;;8.00;5.82;;;;;;;28.07;40.00;99761.69;5050607;28;20154;-56
2021/08/17 04:20:56;;;;;;;7.97;5.60;;;;;;;28.15;39.16;99749.50;5050506;28;20469;-52
2021/08/17 04:23:22;;;;;;;8.10;5.80;;;;;;;28.42;38.92;99753.66;5049707;28;20021;-55
2021/08/17 04:25:48;;;;;;;6.20;5.47;;;;;;;28.18;38.78;99768.28;5050735;28;20055;-55
2021/08/17 04:28:13;;;;;;;10.05;5.55;;;;;;;27.58;40.48;99772.97;5050096;28;20044;-52
2021/08/17 04:30:39;;;;;;;6.05;4.97;;;;;;;27.00;41.19;99750.59;5049857;28;20025;-55
2021/08/17 04:33:04;;;;;;;9.57;5.25;;;;;;;26.51;42.78;99770.69;5050901;28;20576;-56
2021/08/17 04:35:30;;;;;;;9.75;5.65;;;;;;;26.03;43.92;99775.03;5050823;28;20415;-53
2021/08/17 04:37:55;;;;;;;6.13;4.97;;;;;;;25.64;44.78;99766.13;5054144;28;20100;-51
2021/08/17 04:40:21;;;;;;;6.82;4.57;;;;;;;25.27;45.70;99764.06;5054495;28;20075;-51
2021/08/17 04:42:47;;;;;;;7.30;5.47;;;;;;;24.97;46.28;99772.94;5054537;28;20041;-48
2021/08/17 04:45:13;;;;;;;5.93;5.15;;;;;;;24.80;47.07;99764.41;5054344;28;20056;-54
2021/08/17 04:47:51;;;;;;;8.88;5.00;;;;;;;24.70;47.48;99767.59;5053227;28;20125;-55
2021/08/17 04:50:19;;;;;;;5.90;4.95;;;;;;;24.36;47.85;99773.19;5054166;28;20032;-54
2021/08/17 04:52:45;;;;;;;9.15;5.43;;;;;;;24.14;48.69;99741.72;5037625;28;20029;-54
2021/08/17 04:55:11;;;;;;;7.47;5.50;;;;;;;24.05;48.95;99749.31;5034012;28;20086;-54
2021/08/17 04:57:56;;;;;;;7.72;5.00;;;;;;;24.06;49.26;99743.63;5034143;28;20025;-56
2021/08/17 05:00:23;;;;;;;10.43;5.87;;;;;;;23.90;50.55;99744.06;5034243;28;20082;-53
2021/08/17 05:02:49;;;;;;;8.02;5.30;;;;;;;23.78;51.57;99716.53;5033888;28;20021;-53
2021/08/17 05:05:15;;;;;;;8.20;5.70;;;;;;;23.69;51.95;99705.00;5032451;28;20053;-52
2021/08/17 05:07:42;;;;;;;8.27;4.72;;;;;;;23.56;52.20;99694.94;5034230;28;20099;-49
2021/08/17 05:10:09;;;;;;;6.35;4.63;;;;;;;23.61;50.93;99700.59;5034184;28;20029;-56
2021/08/17 05:12:35;;;;;;;5.82;5.22;;;;;;;23.56;51.26;99683.16;5033739;28;20389;-52
2021/08/17 05:15:07;;;;;;;7.00;4.78;;;;;;;23.55;50.18;99674.13;5033946;28;20472;-53
2021/08/17 05:17:33;;;;;;;6.25;5.55;;;;;;;23.56;50.49;99672.25;5034006;28;20041;-53
2021/08/17 05:19:59;;;;;;;6.45;4.90;;;;;;;23.28;51.38;99657.78;5033329;28;20119;-54
2021/08/17 05:22:25;;;;;;;7.65;5.57;;;;;;;23.43;51.30;99689.50;5032316;28;20029;-56
2021/08/17 05:24:50;;;;;;;8.38;5.53;;;;;;;23.50;51.27;99676.66;5033140;28;20477;-54
2021/08/17 05:27:16;;;;;;;8.43;5.20;;;;;;;23.59;49.86;99682.75;5033517;28;20030;-53
2021/08/17 05:29:41;;;;;;;5.88;4.97;;;;;;;23.61;50.86;99684.19;5032225;28;20025;-53
2021/08/17 05:32:06;;;;;;;7.25;5.50;;;;;;;23.68;50.10;99688.81;5034161;28;20509;-53
2021/08/17 05:34:32;;;;;;;6.35;5.10;;;;;;;23.69;50.47;99695.97;5033446;28;20446;-53
2021/08/17 05:36:58;;;;;;;11.32;5.03;;;;;;;23.74;50.42;99707.09;5033286;28;20033;-51
2021/08/17 05:39:24;;;;;;;9.32;5.25;;;;;;;23.73;49.82;99706.25;5033025;28;20461;-56
2021/08/17 05:41:49;;;;;;;6.35;5.07;;;;;;;23.81;50.44;99710.63;5032048;28;20083;-52
2021/08/17 05:44:15;;;;;;;6.75;5.00;;;;;;;23.87;51.17;99698.03;5033283;28;20022;-55
2021/08/17 05:46:41;;;;;;;7.45;5.00;;;;;;;24.00;51.08;99689.78;5032713;28;20065;-52
2021/08/17 05:49:06;;;;;;;7.20;4.50;;;;;;;24.13;49.76;99693.53;5033500;28;20036;-50
2021/08/17 05:51:32;;;;;;;8.02;4.78;;;;;;;24.25;48.44;99674.56;5040200;28;20533;-57
2021/08/17 05:53:57;;;;;;;9.57;5.35;;;;;;;24.28;48.31;99665.91;5053212;28;20432;-53
2021/08/17 05:56:22;;;;;;;7.35;5.28;;;;;;;24.30;48.41;99669.25;5052716;28;20036;-55
2021/08/17 05:58:48;;;;;;;10.70;5.63;;;;;;;24.35;47.85;99662.09;5053499;28;20530;-53
2021/08/17 06:01:13;;;;;;;7.82;5.30;;;;;;;24.51;48.14;99660.72;5053037;28;20414;-54
2021/08/17 06:03:39;;;;;;;8.65;5.40;;;;;;;24.86;46.72;99661.38;5052864;28;20106;-61
2021/08/17 06:06:04;;;;;;;7.80;5.50;;;;;;;25.28;45.53;99663.56;5052312;28;20021;-56
2021/08/17 06:08:30;;;;;;;6.10;5.15;;;;;;;25.90;44.20;99676.41;5052318;28;20082;-55
2021/08/17 06:10:55;;;;;;;9.05;5.13;;;;;;;26.67;42.70;99664.03;5052461;28;20032;-55
2021/08/17 06:13:23;;;;;;;10.02;5.82;;;;;;;27.41;40.46;99679.34;5052838;28;20111;-56
2021/08/17 06:15:49;;;;;;;9.52;5.43;;;;;;;27.82;39.34;99671.19;5050380;28;20080;-52
2021/08/17 06:18:14;;;;;;;8.10;5.25;;;;;;;27.98;39.07;99660.53;5052307;28;20084;-50
2021/08/17 06:20:40;;;;;;;7.70;5.47;;;;;;;28.33;38.48;99665.09;5052716;28;20484;-60
2021/08/17 06:23:05;;;;;;;6.80;5.57;;;;;;;28.84;37.07;99665.22;5052928;28;20504;-54
2021/08/17 06:25:31;;;;;;;11.10;5.63;;;;;;;29.65;35.73;99649.38;5052178;28;20037;-55
2021/08/17 06:27:57;;;;;;;7.47;5.60;;;;;;;30.93;33.42;99659.38;5052452;28;20029;-52
2021/08/17 06:30:23;;;;;;;8.07;5.05;;;;;;;31.39;32.10;99656.13;5047953;28;20040;-58
2021/08/17 06:32:49;;;;;;;7.70;5.25;;;;;;;31.50;31.90;99666.19;5039940;28;20465;-54
2021/08/17 06:35:14;;;;;;;10.02;5.07;;;;;;;32.16;31.01;99666.78;5040664;28;20095;-53
2021/08/17 06:37:40;;;;;;;9.73;5.32;;;;;;;32.89;29.31;99640.06;5041104;28;20025;-56
2021/08/17 06:40:06;;;;;;;6.95;4.93;;;;;;;34.84;27.25;99665.75;5038918;28;20362;-55
2021/08/17 06:42:32;;;;;;;8.48;5.50;;;;;;;36.40;24.04;99651.78;5041177;28;20136;-55
2021/08/17 06:44:57;;;;;;;9.38;5.20;;;;;;;37.40;22.92;99649.88;5040791;28;20029;-55
2021/08/17 06:47:23;;;;;;;10.88;5.00;;;;;;;39.02;21.12;99667.66;5039780;28;20039;-57
2021/08/17 06:49:48;;;;;;;9.77;5.05;;;;;;;41.28;18.50;99680.00;5041976;28;20025;-55
2021/08/17 06:52:14;;;;;;;11.00;4.97;;;;;;;43.42;16.20;99674.19;5039143;28;20025;-53
2021/08/17 06:54:39;;;;;;;14.77;6.45;;;;;;;45.20;14.51;99677.56;5047190;28;20021;-55
2021/08/17 06:57:05;;;;;;;15.70;6.55;;;;;;;46.03;13.56;99678.00;5051945;28;20460;-57
2021/08/17 06:59:30;;;;;;;11.35;6.20;;;;;;;47.38;12.77;99676.72;5050339;28;20783;-54
2021/08/17 07:01:56;;;;;;;9.93;5.95;;;;;;;48.38;11.76;99678.66;5051746;28;20135;-52
2021/08/17 07:04:21;;;;;;;8.65;5.57;;;;;;;49.42;10.74;99675.34;5051980;28;20080;-53
2021/08/17 07:06:47;;;;;;;9.02;5.57;;;;;;;50.17;10.25;99670.63;5042258;28;20048;-56
2021/08/17 07:09:12;;;;;;;9.68;5.35;;;;;;;50.65;9.96;99681.84;5046439;28;20063;-57
2021/08/17 07:11:38;;;;;;;9.23;5.88;;;;;;;51.41;9.14;99675.47;5032663;28;20092;-54
2021/08/17 07:14:03;;;;;;;17.77;6.32;;;;;;;51.71;8.77;99682.78;5031611;28;20458;-53
2021/08/17 07:16:29;;;;;;;9.95;5.55;;;;;;;51.97;8.85;99677.84;5031389;28;20037;-55
2021/08/17 07:18:54;;;;;;;10.40;5.63;;;;;;;52.26;8.33;99669.19;5031299;28;20481;-57
2021/08/17 07:21:20;;;;;;;11.05;5.47;;;;;;;52.65;7.94;99668.22;5032286;28;20029;-54
2021/08/17 07:23:46;;;;;;;11.32;6.07;;;;;;;51.74;8.16;99653.44;5030193;28;20037;-53
2021/08/17 07:26:12;;;;;;;10.98;6.32;;;;;;;51.17;8.80;99671.34;5044489;28;20106;-55
2021/08/17 07:28:37;;;;;;;11.48;5.65;;;;;;;51.80;8.55;99677.47;5050157;28;20032;-56
2021/08/17 07:31:03;;;;;;;11.93;6.40;;;;;;;52.31;8.31;99660.19;5050191;28;20447;-54
2021/08/17 07:33:28;;;;;;;14.20;6.60;;;;;;;52.91;7.61;99668.88;5051288;28;20029;-54
2021/08/17 07:35:54;;;;;;;12.70;7.20;;;;;;;52.45;7.62;99653.63;5042339;28;20027;-59
2021/08/17 07:38:19;;;;;;;12.87;6.37;;;;;;;51.66;8.53;99658.34;5031695;28;20309;-52
2021/08/17 07:40:45;;;;;;;8.95;5.95;;;;;;;51.75;8.69;99660.75;5031833;28;20265;-54
2021/08/17 07:43:11;;;;;;;13.98;7.13;;;;;;;52.44;8.21;99668.34;5032056;28;20025;-54
2021/08/17 07:45:36;;;;;;;11.73;7.18;;;;;;;52.39;7.97;99670.41;5031801;28;20029;-55
2021/08/17 07:48:02;;;;;;;14.70;6.50;;;;;;;53.03;7.84;99669.63;5029948;28;20342;-56
2021/08/17 07:50:28;;;;;;;16.27;7.18;;;;;;;53.60;7.50;99667.56;5031049;28;20034;-52
2021/08/17 07:52:54;;;;;;;11.77;6.75;;;;;;;53.57;7.12;99672.06;5030964;28;20109;-55
2021/08/17 07:55:19;;;;;;;7.15;6.43;;;;;;;51.91;7.93;99668.88;5031199;28;20057;-56
2021/08/17 07:57:46;;;;;;;7.63;6.75;;;;;;;50.74;9.01;99692.03;5029788;28;20022;-56
2021/08/17 08:00:13;;;;;;;17.17;7.15;;;;;;;49.74;10.07;99683.34;5031158;28;20064;-57
2021/08/17 08:02:38;;;;;;;13.90;6.30;;;;;;;49.02;10.30;99674.97;5030848;28;20033;-57
2021/08/17 08:05:05;;;;;;;11.30;6.35;;;;;;;49.25;9.96;99677.66;5031484;28;20052;-56
2021/08/17 08:07:31;;;;;;;11.43;6.55;;;;;;;49.67;9.99;99657.66;5030975;28;20030;-57
2021/08/17 08:09:56;;;;;;;10.73;6.15;;;;;;;49.94;9.43;99643.25;5031178;28;20465;-56
2021/08/17 08:12:22;;;;;;;14.45;6.32;;;;;;;49.41;9.96;99663.16;5031175;28;20033;-55
2021/08/17 08:14:47;;;;;;;10.75;5.88;;;;;;;47.71;11.72;99676.09;5030953;28;20052;-53
2021/08/17 08:17:13;;;;;;;10.05;6.70;;;;;;;45.72;12.91;99680.53;5033721;28;20455;-53
2021/08/17 08:19:40;;;;;;;9.27;6.43;;;;;;;43.57;14.78;99678.31;5050565;28;20033;-57
2021/08/17 08:22:07;;;;;;;14.75;6.85;;;;;;;41.66;16.15;99658.72;5050717;28;20094;-53
2021/08/17 08:24:33;;;;;;;11.68;7.43;;;;;;;40.01;18.54;99662.97;5051066;28;20497;-55
2021/08/17 08:26:59;;;;;;;13.45;6.88;;;;;;;38.62;20.14;99673.91;5050993;28;20041;-52
2021/08/17 08:29:25;;;;;;;16.13;7.25;;;;;;;37.55;21.52;99671.13;5050688;28;20085;-53
2021/08/17 08:31:50;;;;;;;11.38;7.43;;;;;;;36.83;22.29;99675.13;5050954;28;20033;-56
2021/08/17 08:34:16;;;;;;;20.17;7.97;;;;;;;36.28;23.47;99677.31;5051047;28;20059;-59
2021/08/17 08:36:41;;;;;;;15.40;7.55;;;;;;;35.95;23.85;99668.81;5050522;28;20036;-57
2021/08/17 08:39:07;;;;;;;15.02;7.82;;;;;;;35.43;24.34;99662.97;5050674;28;20029;-51
2021/08/17 08:41:33;;;;;;;18.27;8.25;;;;;;;34.98;25.08;99663.13;5050572;28;20453;-55
2021/08/17 08:43:58;;;;;;;14.75;8.32;;;;;;;34.50;25.83;99642.34;5050763;28;20025;-52
2021/08/17 08:46:25;;;;;;;13.15;8.27;;;;;;;34.39;26.24;99680.47;5049303;28;20029;-57
2021/08/17 08:48:52;;;;;;;15.23;7.85;;;;;;;34.35;26.17;99679.38;5050638;28;20040;-55
2021/08/17 08:51:20;;;;;;;15.15;7.75;;;;;;;34.17;26.32;99673.38;5050509;28;20377;-53
2021/08/17 08:53:47;;;;;;;17.90;8.75;;;;;;;33.91;26.99;99673.44;5050621;28;20025;-52
2021/08/17 08:56:13;;;;;;;16.13;7.72;;;;;;;33.69;27.25;99671.03;5050788;28;20037;-55
2021/08/17 08:58:40;;;;;;;11.73;7.15;;;;;;;33.82;27.30;99675.16;5050456;28;20055;-51
2021/08/17 09:01:09;;;;;;;11.82;7.35;;;;;;;34.05;26.98;99670.09;5050368;28;20105;-55
2021/08/17 09:03:42;;;;;;;14.10;7.10;;;;;;;34.45;26.67;99665.41;5050398;28;20082;-51
2021/08/17 09:06:23;;;;;;;12.88;7.53;;;;;;;34.81;25.63;99667.13;5050545;28;20104;-56
2021/08/17 09:09:11;;;;;;;13.40;7.35;;;;;;;35.00;25.45;99663.66;5050440;28;20081;-53
2021/08/17 09:11:40;;;;;;;14.43;6.97;;;;;;;34.77;26.20;99661.34;5048716;28;20091;-55
2021/08/17 09:14:30;;;;;;;11.00;6.78;;;;;;;34.98;25.94;99658.41;5050596;28;20029;-53
2021/08/17 09:17:00;;;;;;;10.68;7.60;;;;;;;34.84;26.35;99657.41;5049114;28;20075;-53
2021/08/17 09:19:32;;;;;;;9.88;6.80;;;;;;;34.86;25.80;99649.59;5050275;28;20368;-51
2021/08/17 09:22:01;;;;;;;11.95;7.53;;;;;;;34.41;26.88;99660.75;5050504;28;20435;-54
2021/08/17 09:24:33;;;;;;;13.32;7.88;;;;;;;34.28;27.29;99651.09;5053864;28;20029;-55
2021/08/17 09:27:11;;;;;;;11.15;7.05;;;;;;;34.13;27.26;99652.00;5053759;28;20100;-55
2021/08/17 09:29:40;;;;;;;13.60;8.00;;;;;;;34.02;27.71;99654.00;5052201;28;20094;-58
2021/08/17 09:32:19;;;;;;;10.25;7.57;;;;;;;34.01;27.58;99646.78;5054003;28;20029;-51
2021/08/17 09:34:49;;;;;;;11.10;7.75;;;;;;;33.86;28.34;99645.72;5053247;28;20032;-54
2021/08/17 09:37:16;;;;;;;10.85;7.78;;;;;;;33.83;28.25;99635.19;5053275;28;20101;-56
2021/08/17 09:39:50;;;;;;;10.40;7.80;;;;;;;33.80;27.98;99641.31;5053526;28;20124;-57
2021/08/17 09:42:20;;;;;;;13.90;8.10;;;;;;;33.39;28.85;99641.41;5054122;28;20033;-54
2021/08/17 09:45:08;;;;;;;13.95;8.18;;;;;;;32.97;29.48;99613.72;5053361;28;20067;-56
2021/08/17 09:47:55;;;;;;;17.10;7.80;;;;;;;32.95;29.47;99634.53;5052858;28;20125;-56
2021/08/17 09:50:29;;;;;;;12.73;7.88;;;;;;;32.96;29.50;99634.25;5053327;28;20033;-55
2021/08/17 09:53:15;;;;;;;11.52;7.60;;;;;;;33.13;29.11;99627.56;5053276;28;20650;-51
2021/08/17 09:55:45;;;;;;;10.13;6.97;;;;;;;33.12;28.96;99623.13;5052717;28;20039;-52
2021/08/17 09:58:26;;;;;;;10.10;7.50;;;;;;;33.12;28.25;99596.22;5052455;28;20384;-51
2021/08/17 10:00:58;;;;;;;10.45;7.38;;;;;;;33.26;29.04;99618.66;5053413;28;20040;-57
2021/08/17 10:03:25;;;;;;;10.07;7.32;;;;;;;33.19;29.33;99615.34;5051723;28;20040;-56
2021/08/17 10:05:51;;;;;;;12.32;7.88;;;;;;;33.07;29.43;99615.66;5052748;28;20033;-59
2021/08/17 10:08:17;;;;;;;12.75;7.95;;;;;;;32.94;29.71;99614.28;5052851;28;20036;-54
2021/08/17 10:10:48;;;;;;;12.48;7.75;;;;;;;32.86;29.47;99607.31;5051764;28;20116;-56
2021/08/17 10:13:18;;;;;;;13.90;7.55;;;;;;;32.85;29.24;99602.06;5053181;28;20086;-53
2021/08/17 10:15:46;;;;;;;9.27;6.80;;;;;;;32.85;29.45;99611.19;5056220;28;20111;-52
2021/08/17 10:18:14;;;;;;;13.30;8.05;;;;;;;32.79;29.64;99598.47;5052893;28;20845;-55
2021/08/17 10:20:43;;;;;;;12.45;7.68;;;;;;;32.72;29.54;99584.88;5052842;28;20518;-53
2021/08/17 10:23:13;;;;;;;11.38;7.72;;;;;;;32.72;29.61;99597.91;5052468;28;20131;-55
2021/08/17 10:25:59;;;;;;;14.32;8.40;;;;;;;32.89;29.82;99592.09;5052984;28;20492;-57
2021/08/17 10:28:39;;;;;;;10.57;7.47;;;;;;;32.90;29.22;99586.28;5052735;28;20041;-58
2021/08/17 10:31:11;;;;;;;10.55;7.22;;;;;;;32.96;29.00;99584.31;5052442;28;20036;-53
2021/08/17 10:33:54;;;;;;;9.20;7.07;;;;;;;33.02;28.24;99585.16;5052562;28;20051;-54
2021/08/17 10:36:33;;;;;;;8.75;6.75;;;;;;;33.32;28.10;99602.84;5052888;28;20035;-55
2021/08/17 10:39:03;;;;;;;12.90;7.70;;;;;;;33.19;28.21;99582.06;5051164;28;20037;-53
2021/08/17 10:41:37;;;;;;;12.07;7.55;;;;;;;33.10;28.60;99594.84;5052194;28;20437;-58
2021/08/17 10:44:06;;;;;;;10.50;7.85;;;;;;;32.86;28.99;99573.22;5052376;28;20064;-57
2021/08/17 10:46:45;;;;;;;10.70;7.05;;;;;;;32.81;28.93;99573.25;5052400;28;20504;-54
2021/08/17 10:49:33;;;;;;;12.80;7.68;;;;;;;32.93;28.98;99579.34;5052398;28;20036;-54
2021/08/17 10:52:00;;;;;;;11.32;7.53;;;;;;;32.92;29.16;99567.44;5052528;28;20021;-58
2021/08/17 10:54:26;;;;;;;13.95;7.28;;;;;;;32.97;29.35;99558.25;5052292;28;20036;-55
2021/08/17 10:56:52;;;;;;;12.02;8.35;;;;;;;33.05;28.98;99571.56;5034189;28;20033;-54
2021/08/17 10:59:37;;;;;;;11.57;7.72;;;;;;;33.22;28.05;99571.25;5052166;28;20432;-58
2021/08/17 11:02:03;;;;;;;11.55;7.80;;;;;;;33.06;28.33;99555.75;5052265;28;20108;-55
2021/08/17 11:04:46;;;;;;;9.85;7.38;;;;;;;33.19;28.14;99563.50;5052118;28;20120;-53
2021/08/17 11:07:32;;;;;;;9.38;7.72;;;;;;;33.20;28.64;99578.19;5051572;28;20424;-54
2021/08/17 11:10:05;;;;;;;8.48;7.53;;;;;;;33.12;28.69;99587.91;5052153;28;20036;-58
2021/08/17 11:12:38;;;;;;;9.77;7.80;;;;;;;33.18;28.88;99574.84;5051698;28;20511;-55
2021/08/17 11:15:07;;;;;;;11.65;8.55;;;;;;;33.02;28.94;99566.56;5051423;28;20045;-57
2021/08/17 11:17:32;;;;;;;13.57;7.85;;;;;;;32.96;28.91;99559.38;5051761;28;20044;-55
2021/08/17 11:19:59;;;;;;;9.57;7.38;;;;;;;32.90;28.15;99563.28;5051464;28;20090;-55
2021/08/17 11:22:27;;;;;;;7.93;7.03;;;;;;;32.85;28.34;99561.31;5051813;28;20080;-60
2021/08/17 11:25:06;;;;;;;10.57;7.25;;;;;;;32.88;28.63;99559.94;5051825;28;20044;-57
2021/08/17 11:27:38;;;;;;;9.00;7.20;;;;;;;32.78;28.77;99569.88;5051770;28;20093;-57
2021/08/17 11:30:06;;;;;;;9.90;7.05;;;;;;;32.70;28.48;99553.84;5051393;28;20029;-59